sensor_id;sensor_type;location;lat;lon;timestamp;P1;durP1;ratioP1;P2;durP2;ratioP2
74541;SDS011;63015;45.378;20.360;2023-10-09T00:00:45;4.28;;;1.05;;
74541;SDS011;63015;45.378;20.360;2023-10-09T00:02:45;4.60;;;1.50;;
74541;SDS011;63015;45.378;20.360;2023-10-09T00:04:48;7.68;;;1.48;;
74541;SDS011;63015;45.378;20.360;2023-10-09T00:10:55;4.95;;;1.60;;
74541;SDS011;63015;45.378;20.360;2023-10-09T00:12:59;4.97;;;1.50;;
74541;SDS011;63015;45.378;20.360;2023-10-09T00:15:00;5.00;;;1.40;;
74541;SDS011;63015;45.378;20.360;2023-10-09T00:17:10;4.70;;;1.30;;
74541;SDS011;63015;45.378;20.360;2023-10-09T00:19:11;4.43;;;1.40;;
74541;SDS011;63015;45.378;20.360;2023-10-09T00:21:17;4.80;;;1.50;;
74541;SDS011;63015;45.378;20.360;2023-10-09T00:25:25;4.25;;;1.25;;
74541;SDS011;63015;45.378;20.360;2023-10-09T00:27:30;4.53;;;1.20;;
74541;SDS011;63015;45.378;20.360;2023-10-09T00:29:36;4.78;;;1.70;;
74541;SDS011;63015;45.378;20.360;2023-10-09T00:31:42;5.93;;;1.70;;
74541;SDS011;63015;45.378;20.360;2023-10-09T00:33:50;5.93;;;1.30;;
74541;SDS011;63015;45.378;20.360;2023-10-09T00:35:52;4.30;;;1.48;;
74541;SDS011;63015;45.378;20.360;2023-10-09T00:37:57;5.00;;;2.08;;
74541;SDS011;63015;45.378;20.360;2023-10-09T00:40:06;5.95;;;1.92;;
74541;SDS011;63015;45.378;20.360;2023-10-09T00:42:20;5.65;;;2.30;;
74541;SDS011;63015;45.378;20.360;2023-10-09T00:44:30;4.32;;;2.10;;
74541;SDS011;63015;45.378;20.360;2023-10-09T00:46:38;5.95;;;2.22;;
74541;SDS011;63015;45.378;20.360;2023-10-09T00:48:42;6.78;;;2.25;;
74541;SDS011;63015;45.378;20.360;2023-10-09T00:50:47;5.18;;;2.20;;
74541;SDS011;63015;45.378;20.360;2023-10-09T00:52:53;5.00;;;1.90;;
74541;SDS011;63015;45.378;20.360;2023-10-09T00:55:03;5.47;;;2.22;;
74541;SDS011;63015;45.378;20.360;2023-10-09T00:57:13;5.72;;;2.10;;
74541;SDS011;63015;45.378;20.360;2023-10-09T00:59:16;5.45;;;1.95;;
74541;SDS011;63015;45.378;20.360;2023-10-09T01:01:20;5.68;;;1.60;;
74541;SDS011;63015;45.378;20.360;2023-10-09T01:03:26;4.97;;;2.05;;
74541;SDS011;63015;45.378;20.360;2023-10-09T01:05:28;7.97;;;2.47;;
74541;SDS011;63015;45.378;20.360;2023-10-09T01:07:29;5.82;;;2.05;;
74541;SDS011;63015;45.378;20.360;2023-10-09T01:09:32;4.60;;;1.80;;
74541;SDS011;63015;45.378;20.360;2023-10-09T01:11:43;5.35;;;2.25;;
74541;SDS011;63015;45.378;20.360;2023-10-09T01:13:59;7.00;;;2.28;;
74541;SDS011;63015;45.378;20.360;2023-10-09T01:16:11;5.82;;;1.85;;
74541;SDS011;63015;45.378;20.360;2023-10-09T01:18:22;5.65;;;1.80;;
74541;SDS011;63015;45.378;20.360;2023-10-09T01:20:31;5.35;;;1.45;;
74541;SDS011;63015;45.378;20.360;2023-10-09T01:22:41;4.43;;;1.48;;
74541;SDS011;63015;45.378;20.360;2023-10-09T01:24:43;3.90;;;1.48;;
74541;SDS011;63015;45.378;20.360;2023-10-09T01:26:45;5.22;;;1.30;;
74541;SDS011;63015;45.378;20.360;2023-10-09T01:28:46;4.07;;;1.40;;
74541;SDS011;63015;45.378;20.360;2023-10-09T01:30:49;5.03;;;1.42;;
74541;SDS011;63015;45.378;20.360;2023-10-09T01:32:51;5.80;;;1.30;;
74541;SDS011;63015;45.378;20.360;2023-10-09T01:34:52;3.70;;;1.00;;
74541;SDS011;63015;45.378;20.360;2023-10-09T01:36:54;5.40;;;1.38;;
74541;SDS011;63015;45.378;20.360;2023-10-09T01:38:55;4.82;;;1.23;;
74541;SDS011;63015;45.378;20.360;2023-10-09T01:40:56;3.90;;;1.40;;
74541;SDS011;63015;45.378;20.360;2023-10-09T01:43:04;5.03;;;1.40;;
74541;SDS011;63015;45.378;20.360;2023-10-09T01:45:04;4.18;;;1.27;;
74541;SDS011;63015;45.378;20.360;2023-10-09T01:47:27;5.00;;;1.10;;
74541;SDS011;63015;45.378;20.360;2023-10-09T01:49:31;4.30;;;1.20;;
74541;SDS011;63015;45.378;20.360;2023-10-09T01:51:32;3.35;;;1.10;;
74541;SDS011;63015;45.378;20.360;2023-10-09T01:53:36;6.72;;;1.65;;
74541;SDS011;63015;45.378;20.360;2023-10-09T01:55:38;4.07;;;1.20;;
74541;SDS011;63015;45.378;20.360;2023-10-09T01:57:40;3.80;;;1.20;;
74541;SDS011;63015;45.378;20.360;2023-10-09T01:59:45;3.30;;;1.00;;
74541;SDS011;63015;45.378;20.360;2023-10-09T02:03:26;4.00;;;1.23;;
74541;SDS011;63015;45.378;20.360;2023-10-09T02:05:27;5.72;;;1.20;;
74541;SDS011;63015;45.378;20.360;2023-10-09T02:07:34;3.97;;;1.13;;
74541;SDS011;63015;45.378;20.360;2023-10-09T02:09:42;4.57;;;1.20;;
74541;SDS011;63015;45.378;20.360;2023-10-09T02:11:45;4.32;;;1.33;;
74541;SDS011;63015;45.378;20.360;2023-10-09T02:13:45;3.45;;;0.98;;
74541;SDS011;63015;45.378;20.360;2023-10-09T02:15:53;3.10;;;0.90;;
74541;SDS011;63015;45.378;20.360;2023-10-09T02:20:22;5.30;;;1.20;;
74541;SDS011;63015;45.378;20.360;2023-10-09T02:22:29;4.38;;;1.33;;
74541;SDS011;63015;45.378;20.360;2023-10-09T02:24:34;3.58;;;1.08;;
74541;SDS011;63015;45.378;20.360;2023-10-09T02:26:52;3.33;;;1.00;;
74541;SDS011;63015;45.378;20.360;2023-10-09T02:28:53;4.85;;;1.70;;
74541;SDS011;63015;45.378;20.360;2023-10-09T02:31:25;4.35;;;1.10;;
74541;SDS011;63015;45.378;20.360;2023-10-09T02:33:36;3.95;;;1.10;;
74541;SDS011;63015;45.378;20.360;2023-10-09T02:37:42;5.85;;;1.30;;
74541;SDS011;63015;45.378;20.360;2023-10-09T02:39:45;5.55;;;1.00;;
74541;SDS011;63015;45.378;20.360;2023-10-09T02:41:57;6.90;;;1.35;;
74541;SDS011;63015;45.378;20.360;2023-10-09T02:44:20;4.13;;;1.10;;
74541;SDS011;63015;45.378;20.360;2023-10-09T02:46:30;2.90;;;1.00;;
74541;SDS011;63015;45.378;20.360;2023-10-09T02:48:31;4.00;;;1.00;;
74541;SDS011;63015;45.378;20.360;2023-10-09T02:50:36;6.05;;;1.20;;
74541;SDS011;63015;45.378;20.360;2023-10-09T02:52:38;5.28;;;1.60;;
74541;SDS011;63015;45.378;20.360;2023-10-09T02:54:42;5.57;;;1.30;;
74541;SDS011;63015;45.378;20.360;2023-10-09T02:56:47;5.38;;;1.30;;
74541;SDS011;63015;45.378;20.360;2023-10-09T03:01:12;5.65;;;1.30;;
74541;SDS011;63015;45.378;20.360;2023-10-09T03:03:16;6.75;;;1.73;;
74541;SDS011;63015;45.378;20.360;2023-10-09T03:05:17;4.15;;;1.33;;
74541;SDS011;63015;45.378;20.360;2023-10-09T03:07:18;6.43;;;1.20;;
74541;SDS011;63015;45.378;20.360;2023-10-09T03:09:19;5.93;;;1.40;;
74541;SDS011;63015;45.378;20.360;2023-10-09T03:11:26;4.72;;;1.35;;
74541;SDS011;63015;45.378;20.360;2023-10-09T03:13:27;4.72;;;1.95;;
74541;SDS011;63015;45.378;20.360;2023-10-09T03:15:29;5.57;;;1.90;;
74541;SDS011;63015;45.378;20.360;2023-10-09T03:17:35;4.45;;;1.63;;
74541;SDS011;63015;45.378;20.360;2023-10-09T03:19:36;4.65;;;2.08;;
74541;SDS011;63015;45.378;20.360;2023-10-09T03:21:40;5.10;;;1.92;;
74541;SDS011;63015;45.378;20.360;2023-10-09T03:23:41;5.25;;;2.00;;
74541;SDS011;63015;45.378;20.360;2023-10-09T03:25:42;5.60;;;2.30;;
74541;SDS011;63015;45.378;20.360;2023-10-09T03:27:45;7.55;;;2.33;;
74541;SDS011;63015;45.378;20.360;2023-10-09T03:29:46;6.28;;;2.63;;
74541;SDS011;63015;45.378;20.360;2023-10-09T03:31:50;7.18;;;2.00;;
74541;SDS011;63015;45.378;20.360;2023-10-09T03:33:51;6.53;;;2.47;;
74541;SDS011;63015;45.378;20.360;2023-10-09T03:35:52;5.20;;;1.98;;
74541;SDS011;63015;45.378;20.360;2023-10-09T03:37:54;4.63;;;1.65;;
74541;SDS011;63015;45.378;20.360;2023-10-09T03:40:13;5.75;;;1.80;;
74541;SDS011;63015;45.378;20.360;2023-10-09T03:42:17;4.55;;;1.70;;
74541;SDS011;63015;45.378;20.360;2023-10-09T03:44:22;4.85;;;1.77;;
74541;SDS011;63015;45.378;20.360;2023-10-09T03:46:23;6.45;;;2.13;;
74541;SDS011;63015;45.378;20.360;2023-10-09T03:48:32;10.15;;;1.80;;
74541;SDS011;63015;45.378;20.360;2023-10-09T03:50:33;4.72;;;1.50;;
74541;SDS011;63015;45.378;20.360;2023-10-09T03:52:37;6.47;;;2.03;;
74541;SDS011;63015;45.378;20.360;2023-10-09T03:54:40;6.88;;;2.35;;
74541;SDS011;63015;45.378;20.360;2023-10-09T03:56:44;5.18;;;1.90;;
74541;SDS011;63015;45.378;20.360;2023-10-09T03:58:45;5.97;;;1.67;;
74541;SDS011;63015;45.378;20.360;2023-10-09T04:00:46;5.05;;;1.55;;
74541;SDS011;63015;45.378;20.360;2023-10-09T04:02:49;4.25;;;1.45;;
74541;SDS011;63015;45.378;20.360;2023-10-09T04:04:50;3.83;;;1.45;;
74541;SDS011;63015;45.378;20.360;2023-10-09T04:06:50;3.92;;;1.40;;
74541;SDS011;63015;45.378;20.360;2023-10-09T04:08:54;4.68;;;1.75;;
74541;SDS011;63015;45.378;20.360;2023-10-09T04:10:55;6.32;;;1.42;;
74541;SDS011;63015;45.378;20.360;2023-10-09T04:13:03;3.97;;;1.58;;
74541;SDS011;63015;45.378;20.360;2023-10-09T04:15:03;3.45;;;1.27;;
74541;SDS011;63015;45.378;20.360;2023-10-09T04:17:06;4.90;;;1.58;;
74541;SDS011;63015;45.378;20.360;2023-10-09T04:19:27;5.13;;;1.40;;
74541;SDS011;63015;45.378;20.360;2023-10-09T04:21:27;6.72;;;1.25;;
74541;SDS011;63015;45.378;20.360;2023-10-09T04:23:34;3.17;;;1.20;;
74541;SDS011;63015;45.378;20.360;2023-10-09T04:25:36;4.28;;;1.50;;
74541;SDS011;63015;45.378;20.360;2023-10-09T04:27:43;5.60;;;1.17;;
74541;SDS011;63015;45.378;20.360;2023-10-09T04:29:47;4.47;;;1.50;;
74541;SDS011;63015;45.378;20.360;2023-10-09T04:31:49;5.20;;;1.65;;
74541;SDS011;63015;45.378;20.360;2023-10-09T04:33:52;6.57;;;1.40;;
74541;SDS011;63015;45.378;20.360;2023-10-09T04:36:01;6.90;;;1.50;;
74541;SDS011;63015;45.378;20.360;2023-10-09T04:38:21;4.32;;;1.60;;
74541;SDS011;63015;45.378;20.360;2023-10-09T04:40:22;4.63;;;1.33;;
74541;SDS011;63015;45.378;20.360;2023-10-09T04:42:48;4.45;;;1.20;;
74541;SDS011;63015;45.378;20.360;2023-10-09T04:47:04;6.68;;;1.35;;
74541;SDS011;63015;45.378;20.360;2023-10-09T04:49:11;4.28;;;1.40;;
74541;SDS011;63015;45.378;20.360;2023-10-09T04:51:27;5.40;;;1.30;;
74541;SDS011;63015;45.378;20.360;2023-10-09T04:53:57;6.90;;;1.27;;
74541;SDS011;63015;45.378;20.360;2023-10-09T04:56:12;4.18;;;1.25;;
74541;SDS011;63015;45.378;20.360;2023-10-09T04:58:16;7.40;;;1.15;;
74541;SDS011;63015;45.378;20.360;2023-10-09T05:00:24;3.42;;;1.13;;
74541;SDS011;63015;45.378;20.360;2023-10-09T05:02:27;4.38;;;1.10;;
74541;SDS011;63015;45.378;20.360;2023-10-09T05:04:36;8.45;;;1.42;;
74541;SDS011;63015;45.378;20.360;2023-10-09T05:06:37;5.20;;;1.20;;
74541;SDS011;63015;45.378;20.360;2023-10-09T05:08:54;3.92;;;0.98;;
74541;SDS011;63015;45.378;20.360;2023-10-09T05:10:56;4.75;;;1.20;;
74541;SDS011;63015;45.378;20.360;2023-10-09T05:13:00;4.00;;;1.23;;
74541;SDS011;63015;45.378;20.360;2023-10-09T05:15:02;6.35;;;1.40;;
74541;SDS011;63015;45.378;20.360;2023-10-09T05:17:09;4.00;;;1.23;;
74541;SDS011;63015;45.378;20.360;2023-10-09T05:19:15;4.88;;;1.27;;
74541;SDS011;63015;45.378;20.360;2023-10-09T05:21:39;5.07;;;1.55;;
74541;SDS011;63015;45.378;20.360;2023-10-09T05:23:42;9.38;;;2.05;;
74541;SDS011;63015;45.378;20.360;2023-10-09T05:26:03;5.50;;;1.60;;
74541;SDS011;63015;45.378;20.360;2023-10-09T05:28:24;4.03;;;1.42;;
74541;SDS011;63015;45.378;20.360;2023-10-09T05:30:25;6.40;;;1.63;;
74541;SDS011;63015;45.378;20.360;2023-10-09T05:32:26;6.45;;;1.90;;
74541;SDS011;63015;45.378;20.360;2023-10-09T05:34:35;7.05;;;1.80;;
74541;SDS011;63015;45.378;20.360;2023-10-09T05:36:58;5.85;;;2.20;;
74541;SDS011;63015;45.378;20.360;2023-10-09T05:39:11;5.70;;;1.92;;
74541;SDS011;63015;45.378;20.360;2023-10-09T05:41:18;5.90;;;1.75;;
74541;SDS011;63015;45.378;20.360;2023-10-09T05:43:48;6.72;;;1.70;;
74541;SDS011;63015;45.378;20.360;2023-10-09T05:46:07;5.10;;;1.40;;
74541;SDS011;63015;45.378;20.360;2023-10-09T05:48:08;5.38;;;1.65;;
74541;SDS011;63015;45.378;20.360;2023-10-09T05:50:18;4.93;;;1.58;;
74541;SDS011;63015;45.378;20.360;2023-10-09T05:52:19;5.72;;;1.63;;
74541;SDS011;63015;45.378;20.360;2023-10-09T05:54:46;6.40;;;1.70;;
74541;SDS011;63015;45.378;20.360;2023-10-09T05:57:05;5.75;;;1.98;;
74541;SDS011;63015;45.378;20.360;2023-10-09T05:59:29;9.57;;;1.63;;
74541;SDS011;63015;45.378;20.360;2023-10-09T06:01:48;6.00;;;1.85;;
74541;SDS011;63015;45.378;20.360;2023-10-09T06:04:07;6.95;;;1.92;;
74541;SDS011;63015;45.378;20.360;2023-10-09T06:06:18;5.05;;;1.75;;
74541;SDS011;63015;45.378;20.360;2023-10-09T06:08:33;8.35;;;1.73;;
74541;SDS011;63015;45.378;20.360;2023-10-09T06:10:42;6.55;;;1.90;;
74541;SDS011;63015;45.378;20.360;2023-10-09T06:12:43;6.97;;;2.03;;
74541;SDS011;63015;45.378;20.360;2023-10-09T06:14:44;7.93;;;2.15;;
74541;SDS011;63015;45.378;20.360;2023-10-09T06:16:58;7.93;;;1.88;;
74541;SDS011;63015;45.378;20.360;2023-10-09T06:19:15;8.30;;;2.17;;
74541;SDS011;63015;45.378;20.360;2023-10-09T06:21:22;7.25;;;1.95;;
74541;SDS011;63015;45.378;20.360;2023-10-09T06:23:41;5.18;;;1.75;;
74541;SDS011;63015;45.378;20.360;2023-10-09T06:26:09;6.32;;;2.15;;
74541;SDS011;63015;45.378;20.360;2023-10-09T06:28:24;9.48;;;2.90;;
74541;SDS011;63015;45.378;20.360;2023-10-09T06:30:34;6.45;;;1.95;;
74541;SDS011;63015;45.378;20.360;2023-10-09T06:32:44;4.53;;;2.05;;
74541;SDS011;63015;45.378;20.360;2023-10-09T06:35:05;5.82;;;2.05;;
74541;SDS011;63015;45.378;20.360;2023-10-09T06:37:16;6.28;;;1.80;;
74541;SDS011;63015;45.378;20.360;2023-10-09T06:39:19;5.00;;;1.80;;
74541;SDS011;63015;45.378;20.360;2023-10-09T06:41:38;3.50;;;1.20;;
74541;SDS011;63015;45.378;20.360;2023-10-09T06:43:45;5.68;;;1.60;;
74541;SDS011;63015;45.378;20.360;2023-10-09T06:45:56;5.35;;;1.52;;
74541;SDS011;63015;45.378;20.360;2023-10-09T06:47:58;5.97;;;1.60;;
74541;SDS011;63015;45.378;20.360;2023-10-09T06:50:10;4.68;;;1.73;;
74541;SDS011;63015;45.378;20.360;2023-10-09T06:52:20;4.70;;;1.50;;
74541;SDS011;63015;45.378;20.360;2023-10-09T06:54:41;6.88;;;1.80;;
74541;SDS011;63015;45.378;20.360;2023-10-09T06:56:49;6.70;;;1.63;;
74541;SDS011;63015;45.378;20.360;2023-10-09T06:58:53;6.10;;;1.77;;
74541;SDS011;63015;45.378;20.360;2023-10-09T07:00:58;3.92;;;1.55;;
74541;SDS011;63015;45.378;20.360;2023-10-09T07:02:58;5.18;;;1.75;;
74541;SDS011;63015;45.378;20.360;2023-10-09T07:05:11;5.00;;;1.70;;
74541;SDS011;63015;45.378;20.360;2023-10-09T07:07:17;4.75;;;1.88;;
74541;SDS011;63015;45.378;20.360;2023-10-09T07:11:21;5.43;;;1.75;;
74541;SDS011;63015;45.378;20.360;2023-10-09T07:13:42;6.55;;;1.80;;
74541;SDS011;63015;45.378;20.360;2023-10-09T07:15:53;5.00;;;1.58;;
74541;SDS011;63015;45.378;20.360;2023-10-09T07:18:32;9.20;;;2.00;;
74541;SDS011;63015;45.378;20.360;2023-10-09T07:20:49;8.30;;;2.15;;
74541;SDS011;63015;45.378;20.360;2023-10-09T07:22:59;6.57;;;1.58;;
74541;SDS011;63015;45.378;20.360;2023-10-09T07:25:13;7.18;;;2.05;;
74541;SDS011;63015;45.378;20.360;2023-10-09T07:27:37;7.85;;;1.67;;
74541;SDS011;63015;45.378;20.360;2023-10-09T07:29:51;3.90;;;1.80;;
74541;SDS011;63015;45.378;20.360;2023-10-09T07:31:55;7.68;;;1.70;;
74541;SDS011;63015;45.378;20.360;2023-10-09T07:34:12;4.28;;;1.40;;
74541;SDS011;63015;45.378;20.360;2023-10-09T07:36:31;3.90;;;1.17;;
74541;SDS011;63015;45.378;20.360;2023-10-09T07:40:41;4.68;;;1.42;;
74541;SDS011;63015;45.378;20.360;2023-10-09T07:43:20;3.30;;;1.33;;
74541;SDS011;63015;45.378;20.360;2023-10-09T07:45:26;3.60;;;1.05;;
74541;SDS011;63015;45.378;20.360;2023-10-09T07:47:26;4.05;;;1.23;;
74541;SDS011;63015;45.378;20.360;2023-10-09T07:49:46;4.82;;;1.27;;
74541;SDS011;63015;45.378;20.360;2023-10-09T07:51:53;4.05;;;1.40;;
74541;SDS011;63015;45.378;20.360;2023-10-09T07:53:54;4.22;;;0.93;;
74541;SDS011;63015;45.378;20.360;2023-10-09T07:57:58;3.97;;;1.10;;
74541;SDS011;63015;45.378;20.360;2023-10-09T08:00:11;6.25;;;1.33;;
74541;SDS011;63015;45.378;20.360;2023-10-09T08:02:12;4.13;;;1.33;;
74541;SDS011;63015;45.378;20.360;2023-10-09T08:04:17;6.63;;;1.60;;
74541;SDS011;63015;45.378;20.360;2023-10-09T08:06:37;4.68;;;1.50;;
74541;SDS011;63015;45.378;20.360;2023-10-09T08:08:38;5.90;;;1.80;;
74541;SDS011;63015;45.378;20.360;2023-10-09T08:10:39;6.45;;;1.80;;
74541;SDS011;63015;45.378;20.360;2023-10-09T08:12:58;7.30;;;1.63;;
74541;SDS011;63015;45.378;20.360;2023-10-09T08:14:59;5.65;;;1.90;;
74541;SDS011;63015;45.378;20.360;2023-10-09T08:17:19;5.57;;;1.77;;
74541;SDS011;63015;45.378;20.360;2023-10-09T08:19:23;6.25;;;1.98;;
74541;SDS011;63015;45.378;20.360;2023-10-09T08:25:48;4.90;;;1.52;;
74541;SDS011;63015;45.378;20.360;2023-10-09T08:28:10;6.05;;;1.70;;
74541;SDS011;63015;45.378;20.360;2023-10-09T08:30:14;4.93;;;1.58;;
74541;SDS011;63015;45.378;20.360;2023-10-09T08:32:17;8.25;;;1.70;;
74541;SDS011;63015;45.378;20.360;2023-10-09T08:34:18;5.18;;;1.80;;
74541;SDS011;63015;45.378;20.360;2023-10-09T08:36:25;5.72;;;1.73;;
74541;SDS011;63015;45.378;20.360;2023-10-09T08:38:36;4.43;;;1.80;;
74541;SDS011;63015;45.378;20.360;2023-10-09T08:40:37;6.88;;;1.70;;
74541;SDS011;63015;45.378;20.360;2023-10-09T08:42:43;5.30;;;1.75;;
74541;SDS011;63015;45.378;20.360;2023-10-09T08:44:49;5.78;;;1.75;;
74541;SDS011;63015;45.378;20.360;2023-10-09T08:46:53;4.65;;;1.60;;
74541;SDS011;63015;45.378;20.360;2023-10-09T08:48:56;5.50;;;1.70;;
74541;SDS011;63015;45.378;20.360;2023-10-09T08:50:58;7.53;;;1.83;;
74541;SDS011;63015;45.378;20.360;2023-10-09T08:53:01;5.03;;;1.63;;
74541;SDS011;63015;45.378;20.360;2023-10-09T08:55:03;4.95;;;1.70;;
74541;SDS011;63015;45.378;20.360;2023-10-09T08:57:06;6.07;;;1.98;;
74541;SDS011;63015;45.378;20.360;2023-10-09T08:59:09;4.22;;;1.77;;
74541;SDS011;63015;45.378;20.360;2023-10-09T09:01:15;5.35;;;1.88;;
74541;SDS011;63015;45.378;20.360;2023-10-09T09:03:18;6.47;;;1.80;;
74541;SDS011;63015;45.378;20.360;2023-10-09T09:05:21;5.10;;;2.00;;
74541;SDS011;63015;45.378;20.360;2023-10-09T09:09:25;4.78;;;1.65;;
74541;SDS011;63015;45.378;20.360;2023-10-09T09:11:28;5.80;;;1.80;;
74541;SDS011;63015;45.378;20.360;2023-10-09T09:13:36;5.75;;;2.13;;
74541;SDS011;63015;45.378;20.360;2023-10-09T09:15:36;5.85;;;1.95;;
74541;SDS011;63015;45.378;20.360;2023-10-09T09:17:40;4.75;;;1.80;;
74541;SDS011;63015;45.378;20.360;2023-10-09T09:19:41;5.88;;;2.05;;
74541;SDS011;63015;45.378;20.360;2023-10-09T09:21:48;4.63;;;1.92;;
74541;SDS011;63015;45.378;20.360;2023-10-09T09:23:55;5.70;;;2.03;;
74541;SDS011;63015;45.378;20.360;2023-10-09T09:26:01;5.85;;;2.00;;
74541;SDS011;63015;45.378;20.360;2023-10-09T09:28:11;6.50;;;2.00;;
74541;SDS011;63015;45.378;20.360;2023-10-09T09:30:22;3.97;;;1.60;;
74541;SDS011;63015;45.378;20.360;2023-10-09T09:32:31;4.25;;;1.60;;
74541;SDS011;63015;45.378;20.360;2023-10-09T09:34:43;5.90;;;2.05;;
74541;SDS011;63015;45.378;20.360;2023-10-09T09:36:50;6.50;;;1.73;;
74541;SDS011;63015;45.378;20.360;2023-10-09T09:38:54;5.00;;;1.85;;
74541;SDS011;63015;45.378;20.360;2023-10-09T09:41:01;4.65;;;1.50;;
74541;SDS011;63015;45.378;20.360;2023-10-09T09:43:07;5.78;;;1.83;;
74541;SDS011;63015;45.378;20.360;2023-10-09T09:45:21;4.20;;;1.60;;
74541;SDS011;63015;45.378;20.360;2023-10-09T09:47:24;5.03;;;1.65;;
74541;SDS011;63015;45.378;20.360;2023-10-09T09:49:28;6.45;;;1.88;;
74541;SDS011;63015;45.378;20.360;2023-10-09T09:51:32;4.32;;;1.83;;
74541;SDS011;63015;45.378;20.360;2023-10-09T09:53:33;5.93;;;1.52;;
74541;SDS011;63015;45.378;20.360;2023-10-09T09:55:35;4.05;;;1.40;;
74541;SDS011;63015;45.378;20.360;2023-10-09T09:57:42;6.07;;;1.75;;
74541;SDS011;63015;45.378;20.360;2023-10-09T09:59:45;6.10;;;1.60;;
74541;SDS011;63015;45.378;20.360;2023-10-09T10:01:54;3.78;;;1.52;;
74541;SDS011;63015;45.378;20.360;2023-10-09T10:04:11;4.32;;;1.58;;
74541;SDS011;63015;45.378;20.360;2023-10-09T10:06:20;4.32;;;1.50;;
74541;SDS011;63015;45.378;20.360;2023-10-09T10:08:26;3.55;;;1.20;;
74541;SDS011;63015;45.378;20.360;2023-10-09T10:13:05;6.00;;;1.40;;
74541;SDS011;63015;45.378;20.360;2023-10-09T10:15:06;6.53;;;1.48;;
74541;SDS011;63015;45.378;20.360;2023-10-09T10:17:14;6.13;;;1.30;;
74541;SDS011;63015;45.378;20.360;2023-10-09T10:19:18;4.13;;;1.73;;
74541;SDS011;63015;45.378;20.360;2023-10-09T10:21:19;5.30;;;1.75;;
74541;SDS011;63015;45.378;20.360;2023-10-09T10:23:33;6.80;;;1.50;;
74541;SDS011;63015;45.378;20.360;2023-10-09T10:25:37;5.18;;;1.80;;
74541;SDS011;63015;45.378;20.360;2023-10-09T10:27:41;4.22;;;1.75;;
74541;SDS011;63015;45.378;20.360;2023-10-09T10:32:13;5.25;;;1.60;;
74541;SDS011;63015;45.378;20.360;2023-10-09T10:34:18;5.22;;;1.60;;
74541;SDS011;63015;45.378;20.360;2023-10-09T10:36:24;3.85;;;1.63;;
74541;SDS011;63015;45.378;20.360;2023-10-09T10:40:34;4.50;;;1.80;;
74541;SDS011;63015;45.378;20.360;2023-10-09T10:42:48;4.28;;;1.75;;
74541;SDS011;63015;45.378;20.360;2023-10-09T10:45:09;6.38;;;1.90;;
74541;SDS011;63015;45.378;20.360;2023-10-09T10:47:38;5.07;;;2.08;;
74541;SDS011;63015;45.378;20.360;2023-10-09T10:49:43;4.75;;;1.88;;
74541;SDS011;63015;45.378;20.360;2023-10-09T10:51:49;6.45;;;2.40;;
74541;SDS011;63015;45.378;20.360;2023-10-09T10:53:58;5.25;;;1.95;;
74541;SDS011;63015;45.378;20.360;2023-10-09T10:55:59;5.78;;;2.00;;
74541;SDS011;63015;45.378;20.360;2023-10-09T10:58:16;9.10;;;3.35;;
74541;SDS011;63015;45.378;20.360;2023-10-09T11:00:23;7.70;;;3.53;;
74541;SDS011;63015;45.378;20.360;2023-10-09T11:02:43;9.02;;;4.60;;
74541;SDS011;63015;45.378;20.360;2023-10-09T11:04:48;8.52;;;3.13;;
74541;SDS011;63015;45.378;20.360;2023-10-09T11:07:14;11.02;;;5.20;;
74541;SDS011;63015;45.378;20.360;2023-10-09T11:09:26;12.48;;;7.22;;
74541;SDS011;63015;45.378;20.360;2023-10-09T11:11:36;12.18;;;8.18;;
74541;SDS011;63015;45.378;20.360;2023-10-09T11:13:47;13.05;;;7.68;;
74541;SDS011;63015;45.378;20.360;2023-10-09T11:16:04;12.05;;;6.10;;
74541;SDS011;63015;45.378;20.360;2023-10-09T11:18:28;10.20;;;5.22;;
74541;SDS011;63015;45.378;20.360;2023-10-09T11:20:29;12.63;;;4.88;;
74541;SDS011;63015;45.378;20.360;2023-10-09T11:22:32;10.13;;;4.35;;
74541;SDS011;63015;45.378;20.360;2023-10-09T11:24:39;7.43;;;4.28;;
74541;SDS011;63015;45.378;20.360;2023-10-09T11:26:40;8.65;;;4.43;;
74541;SDS011;63015;45.378;20.360;2023-10-09T11:28:41;9.93;;;4.80;;
74541;SDS011;63015;45.378;20.360;2023-10-09T11:31:09;9.25;;;4.80;;
74541;SDS011;63015;45.378;20.360;2023-10-09T11:33:16;8.23;;;3.50;;
74541;SDS011;63015;45.378;20.360;2023-10-09T11:35:17;7.88;;;3.30;;
74541;SDS011;63015;45.378;20.360;2023-10-09T11:37:27;8.57;;;3.70;;
74541;SDS011;63015;45.378;20.360;2023-10-09T11:39:31;5.65;;;2.63;;
74541;SDS011;63015;45.378;20.360;2023-10-09T11:41:39;6.28;;;2.92;;
74541;SDS011;63015;45.378;20.360;2023-10-09T11:43:45;5.78;;;2.72;;
74541;SDS011;63015;45.378;20.360;2023-10-09T11:45:53;6.70;;;3.10;;
74541;SDS011;63015;45.378;20.360;2023-10-09T11:47:58;9.10;;;3.35;;
74541;SDS011;63015;45.378;20.360;2023-10-09T11:50:21;6.97;;;3.25;;
74541;SDS011;63015;45.378;20.360;2023-10-09T11:52:22;6.35;;;3.10;;
74541;SDS011;63015;45.378;20.360;2023-10-09T11:54:35;15.10;;;6.47;;
74541;SDS011;63015;45.378;20.360;2023-10-09T11:56:36;13.20;;;7.40;;
74541;SDS011;63015;45.378;20.360;2023-10-09T11:58:36;12.70;;;6.68;;
74541;SDS011;63015;45.378;20.360;2023-10-09T12:00:40;11.13;;;4.18;;
74541;SDS011;63015;45.378;20.360;2023-10-09T12:02:47;10.05;;;6.05;;
74541;SDS011;63015;45.378;20.360;2023-10-09T12:04:49;11.20;;;6.65;;
74541;SDS011;63015;45.378;20.360;2023-10-09T12:06:50;13.18;;;5.35;;
74541;SDS011;63015;45.378;20.360;2023-10-09T12:09:00;8.90;;;5.57;;
74541;SDS011;63015;45.378;20.360;2023-10-09T12:11:04;14.23;;;9.40;;
74541;SDS011;63015;45.378;20.360;2023-10-09T12:13:08;13.88;;;8.80;;
74541;SDS011;63015;45.378;20.360;2023-10-09T12:15:08;11.85;;;6.60;;
74541;SDS011;63015;45.378;20.360;2023-10-09T12:17:18;7.38;;;3.17;;
74541;SDS011;63015;45.378;20.360;2023-10-09T12:19:19;8.55;;;3.70;;
74541;SDS011;63015;45.378;20.360;2023-10-09T12:21:22;8.35;;;3.20;;
74541;SDS011;63015;45.378;20.360;2023-10-09T12:23:24;6.88;;;3.70;;
74541;SDS011;63015;45.378;20.360;2023-10-09T12:25:28;8.30;;;4.50;;
74541;SDS011;63015;45.378;20.360;2023-10-09T12:27:31;9.43;;;4.72;;
74541;SDS011;63015;45.378;20.360;2023-10-09T12:29:32;7.72;;;4.00;;
74541;SDS011;63015;45.378;20.360;2023-10-09T12:31:32;8.82;;;5.18;;
74541;SDS011;63015;45.378;20.360;2023-10-09T12:33:34;9.90;;;6.15;;
74541;SDS011;63015;45.378;20.360;2023-10-09T12:35:39;14.82;;;6.97;;
74541;SDS011;63015;45.378;20.360;2023-10-09T12:37:41;12.63;;;8.30;;
74541;SDS011;63015;45.378;20.360;2023-10-09T12:39:43;17.08;;;8.93;;
74541;SDS011;63015;45.378;20.360;2023-10-09T12:41:44;15.02;;;11.07;;
74541;SDS011;63015;45.378;20.360;2023-10-09T12:43:47;16.73;;;11.50;;
74541;SDS011;63015;45.378;20.360;2023-10-09T12:45:48;16.55;;;10.23;;
74541;SDS011;63015;45.378;20.360;2023-10-09T12:47:49;14.65;;;9.60;;
74541;SDS011;63015;45.378;20.360;2023-10-09T12:49:50;15.32;;;9.98;;
74541;SDS011;63015;45.378;20.360;2023-10-09T12:51:54;14.65;;;11.32;;
74541;SDS011;63015;45.378;20.360;2023-10-09T12:53:55;18.50;;;12.60;;
74541;SDS011;63015;45.378;20.360;2023-10-09T12:56:01;21.92;;;13.27;;
74541;SDS011;63015;45.378;20.360;2023-10-09T12:58:02;18.10;;;12.60;;
74541;SDS011;63015;45.378;20.360;2023-10-09T13:00:09;18.23;;;11.50;;
74541;SDS011;63015;45.378;20.360;2023-10-09T13:02:12;14.45;;;9.32;;
74541;SDS011;63015;45.378;20.360;2023-10-09T13:04:14;12.18;;;7.90;;
74541;SDS011;63015;45.378;20.360;2023-10-09T13:06:18;11.13;;;7.47;;
74541;SDS011;63015;45.378;20.360;2023-10-09T13:08:24;10.68;;;6.13;;
74541;SDS011;63015;45.378;20.360;2023-10-09T13:10:36;9.60;;;4.53;;